Time;durP1;ratioP1;P1;durP2;ratioP2;P2;SDS_P1;SDS_P2;PMS_P1;PMS_P2;Temp;Humidity;BMP_temperature;BMP_pressure;BME280_temperature;BME280_humidity;BME280_pressure;Samples;Min_cycle;Max_cycle;Signal;HPM_P1;HPM_P2
2022/05/17 00:01:42;;;;;;;14.18;8.27;;;;;;;;;;5036819;28;20141;-68
2022/05/17 00:04:08;;;;;;;9.20;8.25;;;;;;;;;;5042878;28;20033;-68
2022/05/17 00:06:34;;;;;;;9.40;7.70;;;;;;;;;;5048349;28;20040;-68
2022/05/17 00:09:00;;;;;;;9.75;8.20;;;;;;;;;;5045867;28;20044;-68
2022/05/17 00:11:28;;;;;;;13.18;8.57;;;;;;;;;;5037376;28;20034;-68
2022/05/17 00:13:54;;;;;;;11.35;8.82;;;;;;;;;;5048453;28;20029;-68
2022/05/17 00:16:20;;;;;;;10.48;8.68;;;;;;;;;;5047770;28;20036;-68
2022/05/17 00:18:46;;;;;;;9.45;8.23;;;;;;;;;;5037839;28;20032;-68
2022/05/17 00:21:12;;;;;;;10.90;8.93;;;;;;;;;;5038229;28;20041;-68
2022/05/17 00:23:38;;;;;;;10.02;9.02;;;;;;;;;;5046670;28;20033;-68
2022/05/17 00:26:06;;;;;;;10.68;8.02;;;;;;;;;;5036958;28;20037;-68
2022/05/17 00:28:33;;;;;;;10.43;8.10;;;;;;;;;;5045824;28;20037;-67
2022/05/17 00:31:00;;;;;;;9.25;8.23;;;;;;;;;;5051111;28;20033;-68
2022/05/17 00:33:26;;;;;;;14.65;8.30;;;;;;;;;;5050740;28;20041;-68
2022/05/17 00:35:52;;;;;;;11.95;7.97;;;;;;;;;;5043381;28;20025;-69
2022/05/17 00:38:18;;;;;;;9.38;8.48;;;;;;;;;;5045351;28;20769;-68
2022/05/17 00:40:45;;;;;;;10.15;8.27;;;;;;;;;;5051111;28;20147;-68
2022/05/17 00:43:20;;;;;;;10.32;7.88;;;;;;;;;;5040277;28;20060;-67
2022/05/17 00:45:49;;;;;;;11.45;7.85;;;;;;;;;;5046974;28;20056;-67
2022/05/17 00:48:16;;;;;;;9.25;8.30;;;;;;;;;;5050989;28;20059;-68
2022/05/17 00:50:46;;;;;;;9.20;8.20;;;;;;;;;;5051027;28;20702;-68
2022/05/17 00:53:20;;;;;;;9.73;8.30;;;;;;;;;;5039367;28;20021;-68
2022/05/17 00:55:56;;;;;;;9.50;8.68;;;;;;;;;;5033644;28;20041;-68
2022/05/17 00:58:28;;;;;;;13.27;8.80;;;;;;;;;;5050570;28;20048;-68
2022/05/17 01:01:17;;;;;;;10.32;8.35;;;;;;;;;;5036706;28;20067;-68
2022/05/17 01:03:50;;;;;;;12.95;8.80;;;;;;;;;;5045287;28;20037;-68
2022/05/17 01:06:17;;;;;;;10.45;8.27;;;;;;;;;;5064850;22;20115;-67
2022/05/17 01:08:43;;;;;;;14.93;10.05;;;;;;;;;;5048602;28;20061;-66
2022/05/17 01:11:08;;;;;;;14.98;12.32;;;;;;;;;;5050244;28;20060;-66
2022/05/17 01:16:20;;;;;;;13.88;10.15;;;;;;;;;;5057013;28;20036;-67
2022/05/17 01:18:45;;;;;;;12.07;9.55;;;;;;;;;;5058534;28;20116;-67
2022/05/17 01:21:12;;;;;;;13.95;9.68;;;;;;;;;;5065626;28;20041;-68
2022/05/17 01:23:38;;;;;;;13.02;9.02;;;;;;;;;;5067727;28;20485;-68
2022/05/17 01:26:08;;;;;;;14.90;9.90;;;;;;;;;;5061417;28;20082;-67
2022/05/17 01:28:37;;;;;;;14.00;9.10;;;;;;;;;;5064572;28;20403;-67
2022/05/17 01:31:07;;;;;;;10.60;8.80;;;;;;;;;;5070332;28;20648;-67
2022/05/17 01:33:36;;;;;;;9.57;8.68;;;;;;;;;;5069816;28;20528;-68
2022/05/17 01:36:04;;;;;;;13.57;8.75;;;;;;;;;;5065420;28;20473;-68
2022/05/17 01:38:30;;;;;;;10.82;8.75;;;;;;;;;;5059790;28;20097;-67
2022/05/17 01:40:56;;;;;;;8.93;8.02;;;;;;;;;;5065058;28;20044;-68
2022/05/17 01:43:22;;;;;;;10.02;8.63;;;;;;;;;;5073624;28;20136;-68
2022/05/17 01:45:48;;;;;;;10.75;9.60;;;;;;;;;;5062367;28;20112;-67
2022/05/17 01:48:13;;;;;;;12.05;8.93;;;;;;;;;;5065172;28;20112;-67
2022/05/17 01:50:39;;;;;;;9.80;8.80;;;;;;;;;;5069875;28;20123;-67
2022/05/17 01:53:06;;;;;;;11.75;8.65;;;;;;;;;;5064588;28;20035;-67
2022/05/17 01:55:32;;;;;;;10.38;8.60;;;;;;;;;;5055502;28;20033;-68
2022/05/17 01:57:58;;;;;;;13.40;8.65;;;;;;;;;;5088322;28;20093;-68
2022/05/17 02:00:24;;;;;;;9.95;8.60;;;;;;;;;;5089239;28;20063;-68
2022/05/17 02:02:51;;;;;;;12.95;8.48;;;;;;;;;;5063644;28;20055;-68
2022/05/17 02:05:18;;;;;;;10.02;8.63;;;;;;;;;;5096164;28;20027;-67
2022/05/17 02:07:44;;;;;;;10.55;8.52;;;;;;;;;;5089122;28;20608;-67
2022/05/17 02:10:10;;;;;;;14.20;7.95;;;;;;;;;;5089035;28;20032;-68
2022/05/17 02:12:36;;;;;;;9.35;8.55;;;;;;;;;;5068874;28;20035;-67
2022/05/17 02:15:06;;;;;;;9.23;8.43;;;;;;;;;;5063328;28;20060;-68
2022/05/17 02:17:32;;;;;;;11.88;8.65;;;;;;;;;;5069771;28;20036;-68
2022/05/17 02:19:59;;;;;;;14.98;8.45;;;;;;;;;;5062852;28;20127;-68
2022/05/17 02:22:25;;;;;;;11.45;8.82;;;;;;;;;;5062795;28;20036;-68
2022/05/17 02:24:51;;;;;;;10.57;8.75;;;;;;;;;;5055003;28;20039;-68
2022/05/17 02:27:17;;;;;;;10.55;8.40;;;;;;;;;;5067848;28;20036;-68
2022/05/17 02:29:43;;;;;;;10.55;8.30;;;;;;;;;;5066071;28;20089;-67
2022/05/17 02:32:09;;;;;;;10.80;9.07;;;;;;;;;;5062204;28;20040;-68
2022/05/17 02:34:36;;;;;;;13.27;9.07;;;;;;;;;;5051880;28;20036;-68
2022/05/17 02:37:03;;;;;;;11.02;9.13;;;;;;;;;;5060866;28;20140;-67
2022/05/17 02:39:30;;;;;;;9.43;8.40;;;;;;;;;;5063881;28;20032;-68
2022/05/17 02:41:55;;;;;;;9.85;8.88;;;;;;;;;;5060056;28;20462;-68
2022/05/17 02:44:21;;;;;;;14.15;8.80;;;;;;;;;;5060991;28;20063;-68
2022/05/17 02:46:46;;;;;;;10.80;8.63;;;;;;;;;;5060854;28;20064;-67
2022/05/17 02:49:12;;;;;;;11.50;8.27;;;;;;;;;;5061027;28;20091;-68
2022/05/17 02:51:38;;;;;;;9.98;8.85;;;;;;;;;;5057937;28;20041;-67
2022/05/17 02:54:06;;;;;;;11.40;8.93;;;;;;;;;;5052866;28;20037;-68
2022/05/17 02:56:32;;;;;;;10.13;9.00;;;;;;;;;;5058929;28;20047;-68
2022/05/17 02:58:59;;;;;;;11.98;8.65;;;;;;;;;;5065163;28;21411;-68
2022/05/17 03:01:25;;;;;;;12.63;9.40;;;;;;;;;;5060213;28;20033;-68
2022/05/17 03:03:51;;;;;;;10.77;9.63;;;;;;;;;;5062295;28;20575;-68
2022/05/17 03:06:16;;;;;;;15.32;9.75;;;;;;;;;;5069203;28;20036;-68
2022/05/17 03:08:42;;;;;;;13.15;9.90;;;;;;;;;;5073495;28;20036;-67
2022/05/17 03:11:08;;;;;;;11.82;9.18;;;;;;;;;;5066366;28;20415;-68
2022/05/17 03:13:34;;;;;;;10.82;9.30;;;;;;;;;;5063010;28;20029;-68
2022/05/17 03:16:00;;;;;;;12.40;10.10;;;;;;;;;;5066435;28;20036;-68
2022/05/17 03:18:26;;;;;;;10.48;9.38;;;;;;;;;;5063110;28;20028;-68
2022/05/17 03:20:52;;;;;;;11.05;9.95;;;;;;;;;;5055811;28;20024;-68
2022/05/17 03:23:17;;;;;;;10.82;9.32;;;;;;;;;;5065253;28;20047;-67
2022/05/17 03:25:43;;;;;;;11.82;9.52;;;;;;;;;;5057933;28;20035;-65
2022/05/17 03:28:11;;;;;;;13.25;9.43;;;;;;;;;;5061028;28;20398;-64
2022/05/17 03:30:37;;;;;;;11.30;10.15;;;;;;;;;;5065877;28;20028;-64
2022/05/17 03:33:02;;;;;;;11.30;9.50;;;;;;;;;;5061090;28;20024;-65
2022/05/17 03:35:28;;;;;;;12.60;9.43;;;;;;;;;;5062094;28;20043;-64
2022/05/17 03:37:54;;;;;;;14.65;9.80;;;;;;;;;;5068293;28;20085;-64
2022/05/17 03:40:19;;;;;;;14.20;9.30;;;;;;;;;;5066274;28;20043;-64
2022/05/17 03:42:45;;;;;;;11.20;9.52;;;;;;;;;;5067338;28;20098;-64
2022/05/17 03:45:12;;;;;;;10.45;9.00;;;;;;;;;;5061711;28;20115;-64
2022/05/17 03:47:38;;;;;;;13.27;9.07;;;;;;;;;;5078896;28;20683;-64
2022/05/17 03:50:05;;;;;;;13.32;9.45;;;;;;;;;;5067162;28;20036;-64
2022/05/17 03:52:31;;;;;;;10.50;9.48;;;;;;;;;;5058669;28;20099;-64
2022/05/17 03:54:59;;;;;;;11.70;9.40;;;;;;;;;;5054189;28;20044;-64
2022/05/17 03:57:25;;;;;;;10.70;9.50;;;;;;;;;;5059305;28;20455;-64
2022/05/17 03:59:51;;;;;;;13.43;9.35;;;;;;;;;;5065208;28;20063;-64
2022/05/17 04:02:17;;;;;;;12.15;9.98;;;;;;;;;;5071273;28;20036;-64
2022/05/17 04:04:43;;;;;;;13.73;10.05;;;;;;;;;;5082515;28;20047;-65
2022/05/17 04:07:09;;;;;;;15.43;9.77;;;;;;;;;;5078673;28;20542;-64
2022/05/17 04:09:34;;;;;;;11.20;9.95;;;;;;;;;;5060642;28;20082;-64
2022/05/17 04:12:00;;;;;;;12.02;9.73;;;;;;;;;;5055867;28;20068;-64
2022/05/17 04:14:26;;;;;;;9.93;8.95;;;;;;;;;;5068389;28;20032;-67
2022/05/17 04:16:52;;;;;;;12.98;9.75;;;;;;;;;;5071799;28;20040;-64
2022/05/17 04:19:17;;;;;;;11.77;10.27;;;;;;;;;;5071910;28;20028;-64
2022/05/17 04:21:45;;;;;;;18.13;9.80;;;;;;;;;;5066116;28;20423;-64
2022/05/17 04:24:11;;;;;;;11.20;10.02;;;;;;;;;;5058903;28;20037;-64
2022/05/17 04:26:37;;;;;;;12.30;9.75;;;;;;;;;;5069709;28;20028;-64
2022/05/17 04:29:04;;;;;;;11.63;9.38;;;;;;;;;;5091165;28;20043;-65
2022/05/17 04:31:30;;;;;;;10.68;9.57;;;;;;;;;;5064007;28;20116;-64
2022/05/17 04:33:56;;;;;;;10.02;9.07;;;;;;;;;;5058726;28;20162;-64
2022/05/17 04:36:22;;;;;;;12.27;8.38;;;;;;;;;;5060012;28;20036;-65
2022/05/17 04:38:48;;;;;;;10.75;8.48;;;;;;;;;;5059880;28;20032;-65
2022/05/17 04:41:13;;;;;;;9.52;8.57;;;;;;;;;;5069012;28;20044;-65
2022/05/17 04:43:39;;;;;;;9.77;8.73;;;;;;;;;;5060401;28;20049;-64
2022/05/17 04:46:05;;;;;;;10.98;9.00;;;;;;;;;;5062928;28;20527;-65
2022/05/17 04:48:30;;;;;;;11.55;9.07;;;;;;;;;;5083351;28;20028;-65
2022/05/17 04:50:56;;;;;;;9.55;8.68;;;;;;;;;;5088367;28;20031;-64
2022/05/17 04:53:22;;;;;;;9.50;8.63;;;;;;;;;;5067430;28;20451;-65
2022/05/17 04:55:48;;;;;;;10.40;9.27;;;;;;;;;;5065326;28;20538;-65
2022/05/17 04:58:13;;;;;;;10.02;8.70;;;;;;;;;;5071101;28;20040;-65
2022/05/17 05:00:39;;;;;;;10.95;9.02;;;;;;;;;;5070956;28;20036;-65
2022/05/17 05:03:05;;;;;;;9.88;8.88;;;;;;;;;;5064245;28;20075;-65
2022/05/17 05:05:31;;;;;;;10.27;9.27;;;;;;;;;;5057789;28;20030;-65
2022/05/17 05:07:56;;;;;;;9.60;8.25;;;;;;;;;;5064904;28;20040;-65
2022/05/17 05:10:23;;;;;;;9.65;8.55;;;;;;;;;;5070417;28;20106;-65
2022/05/17 05:12:49;;;;;;;9.25;8.32;;;;;;;;;;5075543;28;20036;-65
2022/05/17 05:15:15;;;;;;;8.73;7.93;;;;;;;;;;5055127;28;20403;-65
2022/05/17 05:17:41;;;;;;;8.82;7.95;;;;;;;;;;5088944;28;20063;-65
2022/05/17 05:20:12;;;;;;;9.20;8.35;;;;;;;;;;5076072;28;20071;-65
2022/05/17 05:22:38;;;;;;;9.55;7.93;;;;;;;;;;5064068;28;20040;-65
2022/05/17 05:25:04;;;;;;;10.98;7.70;;;;;;;;;;5058852;28;20041;-65
2022/05/17 05:27:34;;;;;;;11.00;8.27;;;;;;;;;;5064656;28;20036;-65
2022/05/17 05:30:02;;;;;;;9.75;8.40;;;;;;;;;;5062367;28;20229;-65
2022/05/17 05:32:28;;;;;;;9.18;8.07;;;;;;;;;;5069698;28;20040;-65
2022/05/17 05:34:54;;;;;;;8.75;7.88;;;;;;;;;;5069705;28;20414;-65
2022/05/17 05:37:19;;;;;;;12.07;7.70;;;;;;;;;;5062080;28;21084;-65
2022/05/17 05:39:45;;;;;;;12.65;7.40;;;;;;;;;;5064078;28;20511;-65
2022/05/17 05:42:11;;;;;;;9.27;7.78;;;;;;;;;;5070289;28;20040;-65
2022/05/17 05:44:36;;;;;;;10.65;7.82;;;;;;;;;;5069737;28;20086;-65
2022/05/17 05:47:03;;;;;;;10.57;7.90;;;;;;;;;;5055061;28;20037;-65
2022/05/17 05:49:28;;;;;;;10.25;8.40;;;;;;;;;;5073296;28;20067;-65
2022/05/17 05:51:54;;;;;;;11.57;7.90;;;;;;;;;;5089426;28;20068;-65
2022/05/17 05:54:20;;;;;;;8.90;7.43;;;;;;;;;;5062350;28;20064;-65
2022/05/17 05:56:45;;;;;;;8.82;7.35;;;;;;;;;;5058980;28;20392;-65
2022/05/17 05:59:11;;;;;;;8.30;7.50;;;;;;;;;;5066161;28;20041;-65
2022/05/17 06:01:37;;;;;;;8.35;7.57;;;;;;;;;;5069827;28;20040;-65
2022/05/17 06:04:03;;;;;;;8.80;7.70;;;;;;;;;;5066263;28;20044;-65
2022/05/17 06:06:29;;;;;;;9.15;8.30;;;;;;;;;;5054230;28;20032;-65
2022/05/17 06:08:55;;;;;;;11.57;7.75;;;;;;;;;;5068214;28;20110;-65
2022/05/17 06:11:21;;;;;;;8.68;7.20;;;;;;;;;;5069584;28;20052;-65
2022/05/17 06:13:47;;;;;;;8.77;7.97;;;;;;;;;;5066655;28;20678;-65
2022/05/17 06:16:13;;;;;;;8.30;7.60;;;;;;;;;;5059488;28;20288;-65
2022/05/17 06:18:38;;;;;;;8.57;7.32;;;;;;;;;;5069280;28;20040;-65
2022/05/17 06:21:04;;;;;;;10.75;7.93;;;;;;;;;;5069069;28;20257;-65
2022/05/17 06:23:31;;;;;;;9.45;7.65;;;;;;;;;;5055670;28;20033;-65
2022/05/17 06:25:57;;;;;;;8.35;7.38;;;;;;;;;;5057683;28;20032;-65
2022/05/17 06:28:23;;;;;;;8.02;7.15;;;;;;;;;;5088144;28;20047;-65
2022/05/17 06:30:49;;;;;;;9.45;7.28;;;;;;;;;;5088409;28;20061;-65
2022/05/17 06:33:15;;;;;;;8.02;7.22;;;;;;;;;;5069881;28;20061;-65
2022/05/17 06:35:43;;;;;;;8.82;7.40;;;;;;;;;;5057320;28;20521;-65
2022/05/17 06:38:09;;;;;;;11.85;7.47;;;;;;;;;;5068929;28;20036;-65
2022/05/17 06:40:36;;;;;;;9.73;7.57;;;;;;;;;;5067813;28;20064;-65
2022/05/17 06:43:03;;;;;;;8.27;7.47;;;;;;;;;;5056251;28;20543;-65
2022/05/17 06:45:29;;;;;;;8.45;7.65;;;;;;;;;;5063594;28;20038;-65
2022/05/17 06:47:55;;;;;;;8.60;7.50;;;;;;;;;;5058360;28;20028;-65
2022/05/17 06:50:21;;;;;;;11.18;7.45;;;;;;;;;;5071870;28;20028;-65
2022/05/17 06:52:47;;;;;;;9.10;7.40;;;;;;;;;;5080966;28;20380;-65
2022/05/17 06:55:13;;;;;;;8.70;7.40;;;;;;;;;;5056444;28;20490;-65
2022/05/17 06:57:41;;;;;;;11.82;7.50;;;;;;;;;;5062396;28;20391;-65
2022/05/17 07:00:12;;;;;;;8.02;7.22;;;;;;;;;;5065047;28;20059;-65
2022/05/17 07:02:39;;;;;;;9.25;7.72;;;;;;;;;;5058831;28;20036;-65
2022/05/17 07:05:05;;;;;;;7.45;6.75;;;;;;;;;;5071249;22;20029;-67
2022/05/17 07:07:31;;;;;;;10.95;8.30;;;;;;;;;;5067583;28;20044;-66
2022/05/17 07:15:25;;;;;;;9.68;6.82;;;;;;;;;;5066369;28;20048;-66
2022/05/17 07:17:51;;;;;;;15.07;7.28;;;;;;;;;;5070646;28;20125;-66
2022/05/17 07:20:17;;;;;;;8.43;6.70;;;;;;;;;;5067569;28;20167;-66
2022/05/17 07:22:43;;;;;;;9.40;6.70;;;;;;;;;;5070158;28;20039;-66
2022/05/17 07:25:09;;;;;;;7.97;7.15;;;;;;;;;;5077300;28;20044;-66
2022/05/17 07:27:35;;;;;;;7.15;6.45;;;;;;;;;;5068365;28;20263;-66
2022/05/17 07:30:02;;;;;;;7.75;6.93;;;;;;;;;;5067868;28;20185;-66
2022/05/17 07:32:28;;;;;;;10.80;7.07;;;;;;;;;;5072210;28;20535;-66
2022/05/17 07:34:54;;;;;;;8.65;6.90;;;;;;;;;;5066820;28;20177;-66
2022/05/17 07:37:19;;;;;;;8.32;7.10;;;;;;;;;;5064175;28;20024;-66
2022/05/17 07:39:46;;;;;;;8.63;7.45;;;;;;;;;;5065301;28;20375;-65
2022/05/17 07:42:12;;;;;;;9.90;7.97;;;;;;;;;;5067112;28;20047;-66
2022/05/17 07:44:38;;;;;;;9.80;8.25;;;;;;;;;;5065220;28;20028;-66
2022/05/17 07:47:05;;;;;;;8.45;7.03;;;;;;;;;;5064960;28;20040;-66
2022/05/17 07:49:34;;;;;;;8.40;7.30;;;;;;;;;;5067064;28;20472;-66
2022/05/17 07:52:01;;;;;;;9.30;6.70;;;;;;;;;;5067337;28;20063;-66
2022/05/17 07:54:28;;;;;;;8.40;6.95;;;;;;;;;;5066869;28;20036;-66
2022/05/17 07:56:53;;;;;;;14.15;7.25;;;;;;;;;;5076738;28;20037;-66
2022/05/17 07:59:19;;;;;;;7.95;7.15;;;;;;;;;;5068253;28;20040;-66
2022/05/17 08:01:45;;;;;;;8.68;7.25;;;;;;;;;;5067805;28;20111;-66
2022/05/17 08:04:11;;;;;;;13.45;8.00;;;;;;;;;;5064112;28;20032;-66
2022/05/17 08:06:36;;;;;;;10.30;7.38;;;;;;;;;;5067476;28;20056;-66
2022/05/17 08:09:04;;;;;;;9.65;7.40;;;;;;;;;;5064935;28;20123;-66
2022/05/17 08:11:31;;;;;;;11.73;6.75;;;;;;;;;;5064337;28;20391;-66
2022/05/17 08:13:57;;;;;;;11.73;7.10;;;;;;;;;;5069585;28;20028;-66
2022/05/17 08:16:23;;;;;;;9.43;6.70;;;;;;;;;;5067548;28;20082;-66
2022/05/17 08:18:49;;;;;;;11.27;7.20;;;;;;;;;;5067082;28;20055;-67
2022/05/17 08:21:15;;;;;;;7.20;6.50;;;;;;;;;;5066210;28;20463;-66
2022/05/17 08:23:40;;;;;;;8.77;6.30;;;;;;;;;;5071248;28;20387;-66
2022/05/17 08:28:51;;;;;;;6.10;5.50;;;;;;;;;;5067447;28;20044;-67
2022/05/17 08:31:17;;;;;;;7.97;6.70;;;;;;;;;;5069882;28;20033;-67
2022/05/17 08:33:42;;;;;;;7.38;5.97;;;;;;;;;;5067783;28;20028;-67
2022/05/17 08:36:10;;;;;;;7.13;6.40;;;;;;;;;;5067707;28;20463;-66
2022/05/17 08:38:41;;;;;;;8.95;6.45;;;;;;;;;;5063705;28;20024;-66
2022/05/17 08:41:13;;;;;;;9.13;6.00;;;;;;;;;;5068304;28;20044;-67
2022/05/17 08:43:55;;;;;;;8.45;6.40;;;;;;;;;;5069968;28;20448;-67
2022/05/17 08:46:47;;;;;;;9.27;6.00;;;;;;;;;;5067741;28;20044;-66
2022/05/17 08:49:23;;;;;;;8.52;5.68;;;;;;;;;;5072738;28;20474;-66
2022/05/17 08:51:54;;;;;;;6.18;5.43;;;;;;;;;;5070712;28;20621;-66
2022/05/17 08:54:28;;;;;;;7.95;5.22;;;;;;;;;;5072708;28;20028;-66
2022/05/17 08:57:26;;;;;;;6.57;5.93;;;;;;;;;;5073508;28;20040;-66
2022/05/17 08:59:52;;;;;;;;;;;;;;;;;;5048851;28;20056;-66
2022/05/17 09:02:25;;;;;;;7.43;5.60;;;;;;;;;;5070569;28;20332;-66
2022/05/17 09:05:12;;;;;;;5.38;4.82;;;;;;;;;;5067140;28;20074;-66
2022/05/17 09:07:56;;;;;;;9.05;5.78;;;;;;;;;;5069193;28;20094;-66
2022/05/17 09:10:36;;;;;;;6.50;5.72;;;;;;;;;;5070014;28;20034;-66
2022/05/17 09:13:04;;;;;;;8.18;5.40;;;;;;;;;;5069445;28;20031;-66
2022/05/17 09:15:30;;;;;;;7.03;5.40;;;;;;;;;;5072263;28;20028;-66
2022/05/17 09:17:57;;;;;;;7.68;6.13;;;;;;;;;;5070180;28;20047;-66
2022/05/17 09:20:31;;;;;;;7.55;5.32;;;;;;;;;;5070281;28;20028;-66
2022/05/17 09:22:58;;;;;;;7.80;5.93;;;;;;;;;;5070690;28;20035;-66
2022/05/17 09:25:43;;;;;;;6.88;5.45;;;;;;;;;;5077396;28;20036;-66
2022/05/17 09:28:12;;;;;;;6.38;5.47;;;;;;;;;;5068150;28;20153;-66
2022/05/17 09:30:38;;;;;;;8.85;5.40;;;;;;;;;;5069807;28;20079;-66
2022/05/17 09:33:08;;;;;;;6.72;5.60;;;;;;;;;;5070898;28;20028;-66
2022/05/17 09:36:01;;;;;;;6.30;5.22;;;;;;;;;;5072170;28;20071;-66
2022/05/17 09:38:33;;;;;;;9.93;5.30;;;;;;;;;;5066816;28;20067;-66
2022/05/17 09:40:59;;;;;;;7.28;5.85;;;;;;;;;;5067728;28;20041;-66
2022/05/17 09:43:45;;;;;;;8.30;5.70;;;;;;;;;;5067174;28;20395;-66
2022/05/17 09:46:16;;;;;;;5.78;5.22;;;;;;;;;;5068496;28;20113;-66
2022/05/17 09:54:43;;;;;;;9.00;4.68;;;;;;;;;;5077722;28;20134;-66
2022/05/17 09:57:26;;;;;;;6.35;5.18;;;;;;;;;;5069596;28;20131;-66
2022/05/17 10:00:08;;;;;;;5.07;4.40;;;;;;;;;;5068866;28;20028;-66
2022/05/17 10:03:02;;;;;;;5.65;5.10;;;;;;;;;;5074362;28;20036;-66
2022/05/17 10:05:45;;;;;;;8.60;5.47;;;;;;;;;;5060235;28;20078;-66
2022/05/17 10:08:14;;;;;;;7.78;5.30;;;;;;;;;;5071567;28;20039;-66
2022/05/17 10:11:00;;;;;;;6.40;5.28;;;;;;;;;;5069819;28;20033;-66
2022/05/17 10:13:33;;;;;;;8.75;5.30;;;;;;;;;;5069505;28;20221;-66
2022/05/17 10:16:08;;;;;;;7.93;5.07;;;;;;;;;;5072514;28;20414;-66
2022/05/17 10:18:48;;;;;;;5.53;5.03;;;;;;;;;;5070476;28;20036;-66
2022/05/17 10:21:26;;;;;;;5.80;5.20;;;;;;;;;;5069713;28;20071;-67
2022/05/17 10:24:15;;;;;;;5.88;4.55;;;;;;;;;;5074747;28;20040;-66
2022/05/17 10:26:48;;;;;;;6.18;5.40;;;;;;;;;;5078121;28;20073;-66
2022/05/17 10:29:36;;;;;;;7.30;5.90;;;;;;;;;;5062895;28;20090;-66
2022/05/17 10:32:29;;;;;;;7.13;6.32;;;;;;;;;;5063522;28;20543;-66
2022/05/17 10:35:00;;;;;;;6.38;5.80;;;;;;;;;;5075450;28;20028;-66
2022/05/17 10:37:48;;;;;;;8.63;5.57;;;;;;;;;;5068881;28;20403;-66
2022/05/17 10:40:20;;;;;;;7.13;5.63;;;;;;;;;;5069398;28;20136;-66
2022/05/17 10:42:45;;;;;;;7.25;6.03;;;;;;;;;;5069086;28;20067;-66
2022/05/17 10:45:20;;;;;;;7.22;6.07;;;;;;;;;;5068073;28;20077;-66
2022/05/17 10:47:58;;;;;;;5.70;5.25;;;;;;;;;;5068697;28;20032;-66
2022/05/17 10:50:35;;;;;;;7.55;5.40;;;;;;;;;;5066118;28;20024;-66
2022/05/17 10:53:22;;;;;;;6.22;5.50;;;;;;;;;;5065485;28;20066;-66
2022/05/17 10:56:19;;;;;;;6.43;5.50;;;;;;;;;;5068245;28;20051;-66
2022/05/17 10:58:54;;;;;;;8.75;5.53;;;;;;;;;;5064357;28;20298;-66
2022/05/17 11:01:31;;;;;;;7.68;5.60;;;;;;;;;;5080757;28;20112;-66
2022/05/17 11:04:15;;;;;;;6.30;5.70;;;;;;;;;;5061465;28;20035;-66
2022/05/17 11:07:23;;;;;;;6.15;5.28;;;;;;;;;;5064894;28;20407;-66
2022/05/17 11:09:48;;;;;;;7.13;5.22;;;;;;;;;;5001569;28;20042;-67
2022/05/17 11:12:20;;;;;;;9.00;5.25;;;;;;;;;;5004807;28;20042;-66
2022/05/17 11:15:10;;;;;;;7.72;5.20;;;;;;;;;;5004345;28;20034;-66
2022/05/17 11:17:50;;;;;;;6.38;5.50;;;;;;;;;;4997746;28;20269;-66
2022/05/17 11:20:32;;;;;;;8.32;5.32;;;;;;;;;;5003085;28;20057;-67
2022/05/17 11:23:38;;;;;;;6.40;5.43;;;;;;;;;;5001685;28;20138;-66
2022/05/17 11:26:41;;;;;;;5.90;5.30;;;;;;;;;;4975925;28;20081;-66
2022/05/17 11:29:25;;;;;;;5.55;5.07;;;;;;;;;;5000427;28;20219;-66
2022/05/17 11:31:59;;;;;;;5.40;4.90;;;;;;;;;;5003047;28;20038;-66
2022/05/17 11:34:32;;;;;;;5.57;5.10;;;;;;;;;;4992380;28;20046;-66
2022/05/17 11:37:01;;;;;;;8.23;5.35;;;;;;;;;;4992977;28;20042;-66
2022/05/17 11:39:39;;;;;;;10.35;5.28;;;;;;;;;;5004921;28;20046;-66
2022/05/17 11:42:10;;;;;;;6.10;5.50;;;;;;;;;;5067466;28;20044;-66
2022/05/17 11:44:46;;;;;;;5.10;4.70;;;;;;;;;;5066355;28;20051;-66
2022/05/17 11:47:36;;;;;;;6.38;5.65;;;;;;;;;;5067916;28;20032;-66
2022/05/17 11:50:18;;;;;;;6.05;5.38;;;;;;;;;;5068182;28;20028;-67
2022/05/17 11:52:46;;;;;;;6.35;5.75;;;;;;;;;;5066807;28;20032;-66
2022/05/17 11:55:17;;;;;;;7.18;5.50;;;;;;;;;;5080397;28;20632;-66
2022/05/17 11:57:49;;;;;;;5.82;5.43;;;;;;;;;;5068223;28;20055;-66
2022/05/17 12:00:24;;;;;;;6.13;5.63;;;;;;;;;;5067711;28;20515;-66
2022/05/17 12:02:53;;;;;;;6.43;5.82;;;;;;;;;;5068806;28;20040;-66
2022/05/17 12:05:37;;;;;;;5.68;5.25;;;;;;;;;;5068934;28;20033;-66
2022/05/17 12:08:24;;;;;;;5.95;5.45;;;;;;;;;;5067617;28;20036;-66
2022/05/17 12:11:12;;;;;;;6.10;5.50;;;;;;;;;;5071642;28;20078;-66
2022/05/17 12:13:53;;;;;;;7.07;5.40;;;;;;;;;;5066315;28;20039;-66
2022/05/17 12:16:24;;;;;;;6.07;5.50;;;;;;;;;;5064449;28;20082;-66
2022/05/17 12:18:59;;;;;;;6.10;5.60;;;;;;;;;;5070373;28;20020;-66
2022/05/17 12:21:46;;;;;;;5.97;5.45;;;;;;;;;;5082801;28;20051;-66
2022/05/17 12:24:49;;;;;;;6.18;5.57;;;;;;;;;;5070412;28;20044;-65
2022/05/17 12:27:24;;;;;;;5.80;5.30;;;;;;;;;;5069655;28;20047;-66
2022/05/17 12:33:45;;;;;;;6.10;5.60;;;;;;;;;;5069778;28;20395;-66
2022/05/17 12:36:39;;;;;;;6.78;5.53;;;;;;;;;;5068804;28;20402;-66
2022/05/17 12:44:40;;;;;;;6.75;5.95;;;;;;;;;;5070493;28;20387;-66
2022/05/17 12:47:15;;;;;;;6.53;6.03;;;;;;;;;;5071604;28;20036;-67
2022/05/17 12:49:42;;;;;;;8.05;6.07;;;;;;;;;;5074073;28;20502;-66
2022/05/17 12:52:33;;;;;;;5.80;5.30;;;;;;;;;;5070576;28;20028;-66
2022/05/17 12:55:07;;;;;;;5.80;5.40;;;;;;;;;;5077323;28;20100;-66
2022/05/17 12:57:36;;;;;;;6.38;5.30;;;;;;;;;;5079612;28;20043;-66
2022/05/17 13:00:14;;;;;;;5.80;5.30;;;;;;;;;;5073749;28;20039;-66
2022/05/17 13:02:46;;;;;;;5.30;4.88;;;;;;;;;;5068597;28;20039;-66
2022/05/17 13:05:48;;;;;;;5.40;5.00;;;;;;;;;;5066244;28;20033;-65
2022/05/17 13:08:36;;;;;;;6.20;5.60;;;;;;;;;;5074328;22;20037;-67
2022/05/17 13:11:08;;;;;;;5.57;5.22;;;;;;;;;;5066636;28;20044;-67
2022/05/17 13:13:37;;;;;;;5.55;5.15;;;;;;;;;;5068904;28;20503;-67
2022/05/17 13:16:41;;;;;;;5.40;5.00;;;;;;;;;;5078126;28;20033;-66
2022/05/17 13:19:15;;;;;;;5.57;5.18;;;;;;;;;;5042825;28;20045;-66
2022/05/17 13:21:51;;;;;;;5.50;5.10;;;;;;;;;;5029044;28;20458;-68
2022/05/17 13:24:29;;;;;;;5.28;4.97;;;;;;;;;;5043726;28;20083;-67
2022/05/17 13:26:59;;;;;;;;;;;;;;;;;;5045568;28;20518;-67
2022/05/17 13:29:29;;;;;;;5.28;4.85;;;;;;;;;;5051107;28;19947;-66
2022/05/17 13:32:00;;;;;;;6.57;5.38;;;;;;;;;;5045528;28;20051;-66
2022/05/17 13:34:31;;;;;;;5.68;5.30;;;;;;;;;;5043997;28;20037;-67
2022/05/17 13:37:19;;;;;;;5.75;5.35;;;;;;;;;;5044432;28;20040;-66
2022/05/17 13:39:53;;;;;;;5.90;5.40;;;;;;;;;;5045367;28;20037;-69
2022/05/17 13:42:28;;;;;;;5.93;5.50;;;;;;;;;;5043509;28;20118;-67
2022/05/17 13:45:32;;;;;;;5.90;5.50;;;;;;;;;;5042924;28;20044;-67
2022/05/17 13:47:58;;;;;;;5.30;4.80;;;;;;;;;;5042312;28;20484;-67
2022/05/17 13:50:28;;;;;;;5.93;4.80;;;;;;;;;;5044657;28;20924;-67
2022/05/17 13:53:02;;;;;;;4.93;4.50;;;;;;;;;;5043763;28;20066;-67
2022/05/17 13:55:34;;;;;;;4.90;4.60;;;;;;;;;;5047099;28;20056;-67
2022/05/17 13:58:07;;;;;;;4.70;4.40;;;;;;;;;;5053902;28;20549;-67
2022/05/17 14:00:43;;;;;;;5.00;4.70;;;;;;;;;;5050588;28;20086;-67
2022/05/17 14:03:21;;;;;;;5.22;4.82;;;;;;;;;;5046718;28;20116;-67
2022/05/17 14:05:57;;;;;;;5.38;4.50;;;;;;;;;;5067214;28;20514;-67
2022/05/17 14:11:51;;;;;;;5.15;4.65;;;;;;;;;;5051710;28;20110;-68
2022/05/17 14:14:19;;;;;;;4.80;4.45;;;;;;;;;;5061526;28;20507;-66
2022/05/17 14:16:55;;;;;;;5.70;4.57;;;;;;;;;;5048930;28;20038;-67
2022/05/17 14:19:25;;;;;;;5.80;4.70;;;;;;;;;;5042234;28;20041;-67
2022/05/17 14:21:56;;;;;;;4.88;4.55;;;;;;;;;;5047346;28;20044;-66
2022/05/17 14:24:21;;;;;;;4.72;4.32;;;;;;;;;;5043072;28;20041;-67
2022/05/17 14:26:54;;;;;;;4.88;4.57;;;;;;;;;;5039616;28;20037;-68
2022/05/17 14:29:21;;;;;;;5.00;4.60;;;;;;;;;;5059957;28;20075;-68
2022/05/17 14:31:48;;;;;;;5.20;4.80;;;;;;;;;;5045225;28;20124;-66
2022/05/17 14:34:18;;;;;;;5.00;4.60;;;;;;;;;;5045890;28;20112;-68
2022/05/17 14:36:44;;;;;;;5.20;4.70;;;;;;;;;;5050437;28;20060;-68
2022/05/17 14:39:10;;;;;;;5.57;5.00;;;;;;;;;;5041701;28;20036;-68
2022/05/17 14:41:36;;;;;;;5.10;4.60;;;;;;;;;;5049526;28;20032;-66
2022/05/17 14:44:04;;;;;;;6.40;5.10;;;;;;;;;;5047628;28;20515;-67
2022/05/17 14:46:29;;;;;;;5.22;4.82;;;;;;;;;;5046199;28;20057;-68
2022/05/17 14:48:56;;;;;;;5.85;4.82;;;;;;;;;;5046653;28;20072;-68
2022/05/17 14:51:25;;;;;;;5.63;4.63;;;;;;;;;;5067324;28;20040;-68
2022/05/17 14:53:51;;;;;;;;;;;;;;;;;;5048655;28;20492;-66
2022/05/17 14:56:17;;;;;;;6.57;4.80;;;;;;;;;;5049597;28;19912;-66
2022/05/17 14:58:43;;;;;;;5.10;4.70;;;;;;;;;;5048884;28;20216;-68
2022/05/17 15:01:11;;;;;;;5.00;4.70;;;;;;;;;;5053769;28;20032;-68
2022/05/17 15:03:38;;;;;;;;;;;;;;;;;;5055009;28;20042;-66
2022/05/17 15:06:04;;;;;;;5.00;4.60;;;;;;;;;;5045693;28;19955;-68
2022/05/17 15:08:30;;;;;;;4.90;4.50;;;;;;;;;;5059854;28;20143;-68
2022/05/17 15:10:57;;;;;;;4.85;4.50;;;;;;;;;;5067576;28;20038;-68
2022/05/17 15:13:23;;;;;;;6.63;4.53;;;;;;;;;;5046075;28;20032;-68
2022/05/17 15:15:51;;;;;;;5.60;4.85;;;;;;;;;;5038675;28;20040;-68
2022/05/17 15:18:21;;;;;;;5.43;5.03;;;;;;;;;;5055578;28;20255;-66
2022/05/17 15:20:50;;;;;;;5.00;4.60;;;;;;;;;;5058558;28;20124;-68
2022/05/17 15:23:20;;;;;;;5.00;4.47;;;;;;;;;;5049291;28;20036;-68
2022/05/17 15:25:47;;;;;;;4.75;4.43;;;;;;;;;;5053804;28;20036;-68
2022/05/17 15:28:13;;;;;;;6.03;4.70;;;;;;;;;;5055396;28;20509;-68